Terminal Aerodrome Forecast
Issued by NWS

Home | Current Version | Previous Version | Text Only | Print | Product List | Glossary On
Versions: 1 2 3 4 5 6 7 8 9 10 11 12 13 14 15 16 17 18 19 20 21 22 23 24 25 26 27 28 29 30 31 32
000
FTUS43 KDMX 250520
TAFOTM
TAF
KOTM 250520Z 2506/2606 09012KT P6SM SCT025 OVC035
     FM250800 10014KT P6SM VCSH OVC025
     FM251000 08012G21KT 4SM -SHRA BR BKN008 OVC012
     FM251600 06021G30KT 4SM -RA OVC008
     FM252000 05013G21KT 5SM BR SCT006 OVC011
     FM260400 04012KT P6SM SCT015 BKN028=

USA.gov is the U.S. government's official web portal to all federal, state and local government web resources and services.